首页
METAR-TAF:

METAR-TAF

机场 :

Fort Dodge, 艾奥瓦州, 美国

纬度: 42-33N, 经度: 094-11W, 海拔: 354米

当前天气观测

该预报发布于1小时和3分钟前的04:56 UTC
风速11节,风向南转西南
温度 29°C
湿度 70%
气压 1005 hPa
能見度: 16.1公里
天空无云

METAR: KFOD 250456Z AUTO 21011KT 10SM CLR 29/23 A2967 RMK AO2 SLP045 T02890233 403440211

时间: 00:59 (05:59 UTC)

预报

该预报发布于39分钟前的05:20 UTC
预报有效从25日的 06点(UTC)到 26日的 06点(UTC)
风速12节,风向西南
能見度: 10公里
少量云层高于23000英尺
从 25日的 1000点(UTC)
风速5节,风向西
能見度: 10公里
散云层高于25000英尺
从 25日的 1600点(UTC)
风速6节,风向东转东北
能見度: 10公里
散云层高于24000英尺

TAF: KFOD 250520Z 2506/2606 22012KT P6SM FEW230 WS020/23045KT FM251000 28005KT P6SM SCT250 FM251600 06006KT P6SM SCT240

超过4000个机场的气象观测和天气预报(METAR&TAF报告)。

可查询的气象台以黄色和红色小点在地图上表示。

将鼠标移到小点上方,可查看气象台名称。

然后点击查看天气观测和预报。

如需切换地图:点击带黑十字的绿色按钮放大地图;点击带横线的绿色按钮缩小地图;或者点击绿色箭头查看邻近地区的地图。


METAR-TAF: